Time,TemperatureF,DewpointF,PressureIn,WindDirection,WindDirectionDegrees,WindSpeedMPH,WindSpeedGustMPH,Humidity,HourlyPrecipIn,Conditions,Clouds,dailyrainin,SoftwareType,DateUTC
2013-01-23 00:03:00,53.0,-99.9,30.34,East,90,6.0,7.0,-999,-99.99,,,-99.99,,2013-01-23 06:03:00,
2013-01-23 00:13:00,52.0,-99.9,30.34,North,-999,-999.0,-999.0,-999,-99.99,,,-99.99,,2013-01-23 06:13:00,
2013-01-23 00:23:00,52.0,-99.9,30.34,ENE,72,8.0,8.0,-999,-99.99,,,-99.99,,2013-01-23 06:23:00,
2013-01-23 00:33:00,52.0,-99.9,30.34,ENE,72,8.0,8.0,-999,-99.99,,,-99.99,,2013-01-23 06:33:00,
2013-01-23 00:43:00,52.0,-99.9,30.34,ENE,63,8.0,9.0,-999,-99.99,,,-99.99,,2013-01-23 06:43:00,
2013-01-23 00:53:00,53.0,-99.9,30.34,ENE,62,8.0,8.0,-999,-99.99,,,-99.99,,2013-01-23 06:53:00,
2013-01-23 01:02:00,53.0,-99.9,30.34,ENE,60,8.0,9.0,-999,-99.99,,,-99.99,,2013-01-23 07:02:00,
2013-01-23 01:13:00,53.0,-99.9,30.34,North,-999,-999.0,-999.0,-999,-99.99,,,-99.99,,2013-01-23 07:13:00,
2013-01-23 01:23:00,52.0,-99.9,30.33,ENE,67,9.0,10.0,-999,-99.99,,,-99.99,,2013-01-23 07:23:00,
2013-01-23 01:33:00,52.0,-99.9,30.33,ENE,69,10.0,11.0,-999,-99.99,,,-99.99,,2013-01-23 07:33:00,
2013-01-23 01:43:00,52.0,-99.9,30.33,ENE,73,9.0,10.0,-999,-99.99,,,-99.99,,2013-01-23 07:43:00,
2013-01-23 01:53:00,51.0,-99.9,30.33,ENE,78,9.0,10.0,-999,-99.99,,,-99.99,,2013-01-23 07:53:00,
2013-01-23 02:02:00,51.0,-99.9,30.33,East,83,9.0,10.0,-999,-99.99,,,-99.99,,2013-01-23 08:02:00,
2013-01-23 02:13:00,50.0,-99.9,30.32,East,91,9.0,10.0,-999,-99.99,,,-99.99,,2013-01-23 08:13:00,
2013-01-23 02:23:00,50.0,-99.9,30.32,ESE,103,9.0,11.0,-999,-99.99,,,-99.99,,2013-01-23 08:23:00,
2013-01-23 02:33:00,51.0,-99.9,30.32,ESE,104,9.0,9.0,-999,-99.99,,,-99.99,,2013-01-23 08:33:00,
2013-01-23 02:43:00,51.0,-99.9,30.32,ESE,112,8.0,9.0,-999,-99.99,,,-99.99,,2013-01-23 08:43:00,
2013-01-23 02:53:00,52.0,-99.9,30.32,ESE,119,8.0,9.0,-999,-99.99,,,-99.99,,2013-01-23 08:53:00,
2013-01-23 03:03:00,53.0,-99.9,30.32,ESE,122,8.0,8.0,-999,-99.99,,,-99.99,,2013-01-23 09:03:00,
2013-01-23 03:12:00,53.0,-99.9,30.32,ESE,113,6.0,7.0,-999,-99.99,,,-99.99,,2013-01-23 09:12:00,
2013-01-23 03:23:00,53.0,-99.9,30.32,ESE,118,7.0,7.0,-999,-99.99,,,-99.99,,2013-01-23 09:23:00,
2013-01-23 03:33:00,53.0,-99.9,30.32,SE,128,6.0,7.0,-999,-99.99,,,-99.99,,2013-01-23 09:33:00,
2013-01-23 03:44:00,53.0,-99.9,30.32,ESE,122,5.0,6.0,-999,-99.99,,,-99.99,,2013-01-23 09:44:00,
2013-01-23 03:53:00,53.0,-99.9,30.32,ESE,119,5.0,6.0,-999,-99.99,,,-99.99,,2013-01-23 09:53:00,
2013-01-23 04:03:00,52.0,-99.9,30.32,ESE,103,5.0,5.0,-999,-99.99,,,-99.99,,2013-01-23 10:03:00,
2013-01-23 04:13:00,52.0,-99.9,30.32,East,88,4.0,5.0,-999,-99.99,,,-99.99,,2013-01-23 10:13:00,
2013-01-23 04:23:00,52.0,-99.9,30.32,East,92,4.0,5.0,-999,-99.99,,,-99.99,,2013-01-23 10:23:00,
2013-01-23 04:33:00,52.0,-99.9,30.32,ESE,122,5.0,5.0,-999,-99.99,,,-99.99,,2013-01-23 10:33:00,
2013-01-23 04:43:00,53.0,-99.9,30.32,ESE,122,4.0,4.0,-999,-99.99,,,-99.99,,2013-01-23 10:43:00,
2013-01-23 04:53:00,53.0,-99.9,30.32,ESE,117,4.0,4.0,-999,-99.99,,,-99.99,,2013-01-23 10:53:00,
2013-01-23 05:03:00,53.0,-99.9,30.32,ESE,117,4.0,4.0,-999,-99.99,,,-99.99,,2013-01-23 11:03:00,
2013-01-23 05:12:00,53.0,-99.9,30.32,SE,124,3.0,3.0,-999,-99.99,,,-99.99,,2013-01-23 11:12:00,
2013-01-23 05:23:00,53.0,-99.9,30.33,SE,146,3.0,4.0,-999,-99.99,,,-99.99,,2013-01-23 11:23:00,
2013-01-23 05:34:00,54.0,-99.9,30.33,SSE,162,4.0,4.0,-999,-99.99,,,-99.99,,2013-01-23 11:34:00,
2013-01-23 05:43:00,55.0,-99.9,30.33,South,173,4.0,4.0,-999,-99.99,,,-99.99,,2013-01-23 11:43:00,
2013-01-23 05:53:00,54.0,-99.9,30.33,South,171,4.0,4.0,-999,-99.99,,,-99.99,,2013-01-23 11:53:00,
2013-01-23 06:03:00,55.0,-99.9,30.34,South,173,2.0,3.0,-999,-99.99,,,-99.99,,2013-01-23 12:03:00,
2013-01-23 06:13:00,54.0,-99.9,30.34,South,173,2.0,2.0,-999,-99.99,,,-99.99,,2013-01-23 12:13:00,
2013-01-23 06:23:00,52.0,-99.9,30.35,East,94,2.0,2.0,-999,-99.99,,,-99.99,,2013-01-23 12:23:00,
2013-01-23 06:33:00,52.0,-99.9,30.35,ENE,72,2.0,4.0,-999,-99.99,,,-99.99,,2013-01-23 12:33:00,
2013-01-23 06:43:00,52.0,-99.9,30.35,ENE,74,1.0,3.0,-999,-99.99,,,-99.99,,2013-01-23 12:43:00,
2013-01-23 06:53:00,52.0,-99.9,30.35,ENE,65,3.0,3.0,-999,-99.99,,,-99.99,,2013-01-23 12:53:00,
2013-01-23 07:04:00,52.0,-99.9,30.36,ENE,67,4.0,6.0,-999,-99.99,,,-99.99,,2013-01-23 13:04:00,
2013-01-23 07:13:00,52.0,-99.9,30.36,ENE,77,3.0,4.0,-999,-99.99,,,-99.99,,2013-01-23 13:13:00,
2013-01-23 07:23:00,53.0,-99.9,30.36,ESE,106,1.0,2.0,-999,-99.99,,,-99.99,,2013-01-23 13:23:00,
2013-01-23 07:34:00,53.0,-99.9,30.37,ESE,117,1.0,1.0,-999,-99.99,,,-99.99,,2013-01-23 13:34:00,
2013-01-23 07:43:00,52.0,-99.9,30.37,NE,44,3.0,4.0,-999,-99.99,,,-99.99,,2013-01-23 13:43:00,
2013-01-23 07:53:00,52.0,-99.9,30.37,NE,49,6.0,6.0,-999,-99.99,,,-99.99,,2013-01-23 13:53:00,
2013-01-23 08:03:00,52.0,-99.9,30.37,NE,49,6.0,6.0,-999,-99.99,,,-99.99,,2013-01-23 14:03:00,
2013-01-23 08:12:00,52.0,-99.9,30.37,ENE,57,5.0,6.0,-999,-99.99,,,-99.99,,2013-01-23 14:12:00,
2013-01-23 08:24:00,53.0,-99.9,30.37,ENE,70,2.0,2.0,-999,-99.99,,,-99.99,,2013-01-23 14:24:00,
2013-01-23 08:33:00,53.0,-99.9,30.37,ENE,74,3.0,4.0,-999,-99.99,,,-99.99,,2013-01-23 14:33:00,
2013-01-23 08:43:00,53.0,-99.9,30.37,SE,135,2.0,2.0,-999,-99.99,,,-99.99,,2013-01-23 14:43:00,
2013-01-23 08:53:00,55.0,-99.9,30.37,SSE,149,3.0,3.0,-999,-99.99,,,-99.99,,2013-01-23 14:53:00,
2013-01-23 09:03:00,56.0,-99.9,30.38,East,83,2.0,3.0,-999,-99.99,,,-99.99,,2013-01-23 15:03:00,
2013-01-23 09:13:00,56.0,-99.9,30.38,ENE,63,2.0,3.0,-999,-99.99,,,-99.99,,2013-01-23 15:13:00,
2013-01-23 09:23:00,56.0,-99.9,30.39,SE,140,1.0,2.0,-999,-99.99,,,-99.99,,2013-01-23 15:23:00,
2013-01-23 09:33:00,58.0,-99.9,30.39,SE,130,2.0,4.0,-999,-99.99,,,-99.99,,2013-01-23 15:33:00,
2013-01-23 09:43:00,59.0,-99.9,30.39,SE,142,4.0,5.0,-999,-99.99,,,-99.99,,2013-01-23 15:43:00,
2013-01-23 09:53:00,58.0,-99.9,30.39,SSE,157,6.0,7.0,-999,-99.99,,,-99.99,,2013-01-23 15:53:00,
2013-01-23 10:03:00,58.0,-99.9,30.39,SSE,158,6.0,7.0,-999,-99.99,,,-99.99,,2013-01-23 16:03:00,
2013-01-23 10:12:00,59.0,-99.9,30.40,ESE,116,5.0,7.0,-999,-99.99,,,-99.99,,2013-01-23 16:12:00,
2013-01-23 10:23:00,60.0,-99.9,30.40,SE,145,4.0,6.0,-999,-99.99,,,-99.99,,2013-01-23 16:23:00,
2013-01-23 10:33:00,60.0,-99.9,30.40,SE,142,6.0,7.0,-999,-99.99,,,-99.99,,2013-01-23 16:33:00,
2013-01-23 10:43:00,60.0,-99.9,30.40,SE,142,5.0,7.0,-999,-99.99,,,-99.99,,2013-01-23 16:43:00,
2013-01-23 10:53:00,61.0,-99.9,30.40,SE,136,4.0,6.0,-999,-99.99,,,-99.99,,2013-01-23 16:53:00,
2013-01-23 11:03:00,61.0,-99.9,30.40,SE,144,4.0,6.0,-999,-99.99,,,-99.99,,2013-01-23 17:03:00,
2013-01-23 11:13:00,61.0,-99.9,30.40,SSE,160,3.0,5.0,-999,-99.99,,,-99.99,,2013-01-23 17:13:00,
2013-01-23 11:23:00,60.0,-99.9,30.40,North,357,1.0,2.0,-999,-99.99,,,-99.99,,2013-01-23 17:23:00,
2013-01-23 11:34:00,60.0,-99.9,30.39,NNW,346,0.0,1.0,-999,-99.99,,,-99.99,,2013-01-23 17:34:00,
2013-01-23 11:43:00,62.0,-99.9,30.38,South,179,3.0,5.0,-999,-99.99,,,-99.99,,2013-01-23 17:43:00,
2013-01-23 11:53:00,61.0,-99.9,30.38,South,177,4.0,6.0,-999,-99.99,,,-99.99,,2013-01-23 17:53:00,
2013-01-23 12:04:00,61.0,-99.9,30.37,South,174,5.0,6.0,-999,-99.99,,,-99.99,,2013-01-23 18:04:00,
2013-01-23 12:13:00,61.0,-99.9,30.37,South,181,5.0,7.0,-999,-99.99,,,-99.99,,2013-01-23 18:13:00,
2013-01-23 12:24:00,61.0,-99.9,30.36,South,182,4.0,6.0,-999,-99.99,,,-99.99,,2013-01-23 18:24:00,
2013-01-23 12:33:00,61.0,-99.9,30.36,South,182,4.0,6.0,-999,-99.99,,,-99.99,,2013-01-23 18:33:00,
2013-01-23 12:44:00,61.0,-99.9,30.35,South,189,4.0,6.0,-999,-99.99,,,-99.99,,2013-01-23 18:44:00,
2013-01-23 12:53:00,61.0,-99.9,30.35,SSW,194,6.0,7.0,-999,-99.99,,,-99.99,,2013-01-23 18:53:00,
2013-01-23 13:03:00,61.0,-99.9,30.35,SSW,194,6.0,7.0,-999,-99.99,,,-99.99,,2013-01-23 19:03:00,
2013-01-23 13:13:00,62.0,-99.9,30.34,SSW,194,6.0,7.0,-999,-99.99,,,-99.99,,2013-01-23 19:13:00,
2013-01-23 13:23:00,61.0,-99.9,30.33,SSW,199,6.0,8.0,-999,-99.99,,,-99.99,,2013-01-23 19:23:00,
2013-01-23 13:33:00,62.0,-99.9,30.33,SW,216,5.0,7.0,-999,-99.99,,,-99.99,,2013-01-23 19:33:00,
2013-01-23 13:43:00,62.0,-99.9,30.33,SW,222,5.0,7.0,-999,-99.99,,,-99.99,,2013-01-23 19:43:00,
2013-01-23 13:53:00,62.0,-99.9,30.33,SW,227,5.0,7.0,-999,-99.99,,,-99.99,,2013-01-23 19:53:00,
2013-01-23 14:03:00,62.0,-99.9,30.33,SW,224,5.0,7.0,-999,-99.99,,,-99.99,,2013-01-23 20:03:00,
2013-01-23 14:13:00,62.0,-99.9,30.32,SW,221,5.0,7.0,-999,-99.99,,,-99.99,,2013-01-23 20:13:00,
2013-01-23 14:23:00,62.0,-99.9,30.32,SW,224,6.0,8.0,-999,-99.99,,,-99.99,,2013-01-23 20:23:00,
2013-01-23 14:33:00,62.0,-99.9,30.32,SW,223,5.0,7.0,-999,-99.99,,,-99.99,,2013-01-23 20:33:00,
2013-01-23 14:43:00,62.0,-99.9,30.32,SW,226,6.0,8.0,-999,-99.99,,,-99.99,,2013-01-23 20:43:00,
2013-01-23 14:54:00,62.0,-99.9,30.32,SW,229,6.0,7.0,-999,-99.99,,,-99.99,,2013-01-23 20:54:00,
2013-01-23 15:03:00,61.0,-99.9,30.32,SW,235,7.0,8.0,-999,-99.99,,,-99.99,,2013-01-23 21:03:00,
2013-01-23 15:12:00,62.0,-99.9,30.32,SW,235,8.0,9.0,-999,-99.99,,,-99.99,,2013-01-23 21:12:00,
2013-01-23 15:23:00,62.0,-99.9,30.32,SW,230,8.0,9.0,-999,-99.99,,,-99.99,,2013-01-23 21:23:00,
2013-01-23 15:34:00,62.0,-99.9,30.32,SW,230,8.0,9.0,-999,-99.99,,,-99.99,,2013-01-23 21:34:00,
2013-01-23 15:43:00,62.0,-99.9,30.32,WSW,246,11.0,12.0,-999,-99.99,,,-99.99,,2013-01-23 21:43:00,
2013-01-23 15:53:00,62.0,-99.9,30.32,WSW,238,11.0,13.0,-999,-99.99,,,-99.99,,2013-01-23 21:53:00,
2013-01-23 16:03:00,62.0,-99.9,30.32,WSW,244,11.0,13.0,-999,-99.99,,,-99.99,,2013-01-23 22:03:00,
2013-01-23 16:13:00,62.0,-99.9,30.32,WSW,238,12.0,13.0,-999,-99.99,,,-99.99,,2013-01-23 22:13:00,
2013-01-23 16:23:00,61.0,-99.9,30.31,WSW,238,12.0,13.0,-999,-99.99,,,-99.99,,2013-01-23 22:23:00,
2013-01-23 16:33:00,61.0,-99.9,30.32,WSW,240,11.0,12.0,-999,-99.99,,,-99.99,,2013-01-23 22:33:00,
2013-01-23 16:43:00,61.0,-99.9,30.32,WSW,244,11.0,11.0,-999,-99.99,,,-99.99,,2013-01-23 22:43:00,
2013-01-23 16:53:00,61.0,-99.9,30.31,SW,234,12.0,13.0,-999,-99.99,,,-99.99,,2013-01-23 22:53:00,
2013-01-23 17:03:00,61.0,-99.9,30.31,SW,236,13.0,13.0,-999,-99.99,,,-99.99,,2013-01-23 23:03:00,
2013-01-23 17:13:00,61.0,-99.9,30.32,WSW,244,11.0,12.0,-999,-99.99,,,-99.99,,2013-01-23 23:13:00,
2013-01-23 17:23:00,60.0,-99.9,30.32,WSW,243,11.0,11.0,-999,-99.99,,,-99.99,,2013-01-23 23:23:00,
2013-01-23 17:33:00,60.0,-99.9,30.31,North,-999,-999.0,-999.0,-999,-99.99,,,-99.99,,2013-01-23 23:33:00,
2013-01-23 17:43:00,60.0,-99.9,30.31,WSW,238,12.0,12.0,-999,-99.99,,,-99.99,,2013-01-23 23:43:00,
2013-01-23 17:53:00,60.0,-99.9,30.31,WSW,240,11.0,12.0,-999,-99.99,,,-99.99,,2013-01-23 23:53:00,
2013-01-23 18:03:00,60.0,-99.9,30.31,WSW,243,11.0,11.0,-999,-99.99,,,-99.99,,2013-01-24 00:03:00,
2013-01-23 18:12:00,60.0,-99.9,30.31,WSW,245,12.0,13.0,-999,-99.99,,,-99.99,,2013-01-24 00:12:00,
2013-01-23 18:22:00,60.0,-99.9,30.31,WSW,240,11.0,13.0,-999,-99.99,,,-99.99,,2013-01-24 00:22:00,
2013-01-23 18:33:00,60.0,-99.9,30.31,WSW,237,12.0,13.0,-999,-99.99,,,-99.99,,2013-01-24 00:33:00,
2013-01-23 18:43:00,60.0,-99.9,30.30,SW,233,12.0,13.0,-999,-99.99,,,-99.99,,2013-01-24 00:43:00,
2013-01-23 18:53:00,60.0,-99.9,30.30,SW,226,14.0,15.0,-999,-99.99,,,-99.99,,2013-01-24 00:53:00,
2013-01-23 19:03:00,60.0,-99.9,30.30,SW,226,15.0,15.0,-999,-99.99,,,-99.99,,2013-01-24 01:03:00,
2013-01-23 19:12:00,60.0,-99.9,30.30,SW,227,15.0,16.0,-999,-99.99,,,-99.99,,2013-01-24 01:12:00,
2013-01-23 19:23:00,60.0,-99.9,30.30,SW,229,16.0,16.0,-999,-99.99,,,-99.99,,2013-01-24 01:23:00,
2013-01-23 19:33:00,60.0,-99.9,30.30,SW,232,15.0,16.0,-999,-99.99,,,-99.99,,2013-01-24 01:33:00,
2013-01-23 19:43:00,60.0,-99.9,30.30,SW,234,15.0,16.0,-999,-99.99,,,-99.99,,2013-01-24 01:43:00,
2013-01-23 19:53:00,60.0,-99.9,30.31,WSW,238,13.0,14.0,-999,-99.99,,,-99.99,,2013-01-24 01:53:00,
2013-01-23 20:03:00,60.0,-99.9,30.31,WSW,237,14.0,15.0,-999,-99.99,,,-99.99,,2013-01-24 02:03:00,
2013-01-23 20:12:00,60.0,-99.9,30.32,WSW,240,14.0,15.0,-999,-99.99,,,-99.99,,2013-01-24 02:12:00,
2013-01-23 20:23:00,60.0,-99.9,30.31,SW,236,13.0,14.0,-999,-99.99,,,-99.99,,2013-01-24 02:23:00,
2013-01-23 20:33:00,60.0,-99.9,30.31,SW,233,14.0,15.0,-999,-99.99,,,-99.99,,2013-01-24 02:33:00,
2013-01-23 20:43:00,60.0,-99.9,30.31,SW,233,14.0,15.0,-999,-99.99,,,-99.99,,2013-01-24 02:43:00,
2013-01-23 20:53:00,60.0,-99.9,30.31,SW,233,14.0,15.0,-999,-99.99,,,-99.99,,2013-01-24 02:53:00,
2013-01-23 21:03:00,60.0,-99.9,30.31,SW,227,16.0,17.0,-999,-99.99,,,-99.99,,2013-01-24 03:03:00,
2013-01-23 21:12:00,60.0,-99.9,30.31,SW,223,16.0,17.0,-999,-99.99,,,-99.99,,2013-01-24 03:12:00,
2013-01-23 21:22:00,60.0,-99.9,30.31,SW,228,15.0,16.0,-999,-99.99,,,-99.99,,2013-01-24 03:22:00,
2013-01-23 21:33:00,60.0,-99.9,30.31,SW,230,15.0,16.0,-999,-99.99,,,-99.99,,2013-01-24 03:33:00,
2013-01-23 21:43:00,60.0,-99.9,30.31,SW,231,15.0,16.0,-999,-99.99,,,-99.99,,2013-01-24 03:43:00,
2013-01-23 21:53:00,60.0,-99.9,30.31,SW,231,15.0,16.0,-999,-99.99,,,-99.99,,2013-01-24 03:53:00,
2013-01-23 22:03:00,60.0,-99.9,30.31,SW,230,15.0,16.0,-999,-99.99,,,-99.99,,2013-01-24 04:03:00,
2013-01-23 22:12:00,59.0,-99.9,30.31,SW,235,14.0,15.0,-999,-99.99,,,-99.99,,2013-01-24 04:12:00,
2013-01-23 22:22:00,60.0,-99.9,30.31,WSW,238,14.0,15.0,-999,-99.99,,,-99.99,,2013-01-24 04:22:00,
2013-01-23 22:33:00,60.0,-99.9,30.31,WSW,239,15.0,16.0,-999,-99.99,,,-99.99,,2013-01-24 04:33:00,
2013-01-23 22:43:00,60.0,-99.9,30.31,WSW,237,16.0,17.0,-999,-99.99,,,-99.99,,2013-01-24 04:43:00,
2013-01-23 22:53:00,60.0,-99.9,30.30,SW,231,17.0,17.0,-999,-99.99,,,-99.99,,2013-01-24 04:53:00,
2013-01-23 23:03:00,60.0,-99.9,30.30,SW,235,15.0,16.0,-999,-99.99,,,-99.99,,2013-01-24 05:03:00,
2013-01-23 23:12:00,60.0,-99.9,30.30,SW,235,16.0,17.0,-999,-99.99,,,-99.99,,2013-01-24 05:12:00,
2013-01-23 23:23:00,60.0,-99.9,30.29,SW,235,17.0,18.0,-999,-99.99,,,-99.99,,2013-01-24 05:23:00,
2013-01-23 23:33:00,60.0,-99.9,30.29,SW,235,19.0,19.0,-999,-99.99,,,-99.99,,2013-01-24 05:33:00,
2013-01-23 23:43:00,60.0,-99.9,30.30,WSW,237,19.0,19.0,-999,-99.99,,,-99.99,,2013-01-24 05:43:00,
2013-01-23 23:53:00,60.0,-99.9,30.30,WSW,238,17.0,18.0,-999,-99.99,,,-99.99,,2013-01-24 05:53:00,